Weather at Kelowna International Airport

Public forecast

Using degrees Celsius for public forecast. Weather courtesy of forecast.io.

Current aviation weather report (METAR) for Kelowna International Airport

Retrieved 2020/12/04 10:00 UTC (30 minutes ago):

CYLW 041000Z AUTO 19003KT 130V210 9SM CLR M04/M05 A3051 RMK SLP353

Aviation forecast (TAF) for Kelowna International Airport

Retrieved 2020/12/04 07:39 UTC (3 hours ago):

TAF TAF CYLW 040638Z 0407/0419 18005KT P6SM FEW080 FM041200 VRB03KT P6SM FEW010 TEMPO 0412/0418 3SM BR SCT010 FM041800 VRB03KT P6SM FEW200 RMK FCST BASED ON AUTO OBS NXT FCST BY 041300Z